Kingville, South Carolina
Current Conditions -  °F | °C
As of 7:58 AM on Wednesday 26 Nov 2014 (Local Time) from KMMT Reporting Station
Light Rain Light Rain  
Wind Chill: 43°   Ceiling: 600
Heat Index: 48°   Visibility: 5mi
Dew Point: 47°   Wind: 13mph
Humidity: 98%   Direction: 300°WNW
Pressure: 29.98"   Gusts: NA
Location:  33.8428°N, 80.7414°W
Report Text: KMMT 261258Z 30011KT 5SM -RA BR OVC006 09/09 A2998 RMK AO2A SLP155 P0005 T00880085
Loading
Personal Weather Stations






























Interactive Weather Map New forecast layout! Learn more

10-Day Weather Forecast

Advertisements
Track Severe Weather on mobile